Houston, Texas
Traffic Map
Current Weather Conditions
Houston, Texas
Broken Clouds
Broken Clouds
24°
Feels Like: 24°
Wind Chill: 24° Ceiling: 15000
Heat Index: 24° Visibility: 9mi
Dew Point: 23° Wind: 5mph
Humidity: 91% Direction: 20° (NNE)
Pressure: 29.98in Gusts: 0mph
Raw Report DataKIAH 270553Z 02004KT 9SM SCT100 BKN150 BKN250 24/23 A2998 RMK AO2 SLP149 60004 T02440228 10256 20233 403170228 58009
Traffic Incident Summary
Active as of:
Severity:
Category:
InformationThere was an issue retrieving the traffic information for this location. Please try a different location or try again shortly.
Advertisements
Track Severe Weather on mobile